LiveATC.Net - Listen to live air traffic control over the Internet! Contact LiveATC.net for advertising information


ICAO: SBSR  IATA: SJP   Airport: Sao Jose do Rio Preto Airport
City: Sao Jose do Rio Preto
Country: Brazil   Continent: South America
SBSR METAR Weather: SBSR 232300Z 23005KT 3000 -TSRA SCT006 BKN013 FEW040CB BKN080 23/21 Q1014 RETSRA
SBSR Flight Activity (FlightAware)
SBSR AFIS/App/Center
Feed Status: DOWN
Last heard on: 2014-10-19 09:34:04 (35 days 14 hours 33 minutes ago)
SBSR AFIS/App/Center Audio Archives
FacilityFrequency
Academia Approach (North Sector)119.750
Academia Approach (North Sector)120.400
Brasilia Center135.150
Rio Preto Radio AFIS130.850


NOTICE

Unauthorized use prohibited. See LiveATC.net Terms of Service


Find LiveATC Audio Streams


Airport/ARTCC Code

Frequency
(e.g., 124.400, 128.75)
Site-wide search

Browse LiveATC Feeds
LiveATC Coverage Map
Top 50 LiveATC Feeds
Bad Weather Areas

LiveATC FAQ
Offer a LiveATC Feed
Contact LiveATC.net
Press Inquiries

LiveATC on iPhone
LiveATC on Android

LiveATC Mobile
(Mobile browser)

ATC Audio Archives
Interesting Recordings

LiveATC Forums


Home Page
About LiveATC.net
Make a Donation
LiveATC Bookstore

Terms of Use
Privacy Policy

ATC/Radar Sites
U.S. ARTCC Freqs
Canadian Air Freqs

AIRMETs/SIGMETs

FAA Airport Status
Nat'l Airspace Status
Arrival Demand Charts


Server Software By:
Icecast.org
Liquidsoap

Please make a donation to help us keep growing!